LOT2015 EPWR-EDDM
Flight info
| Callsign | LOT2015 |
|---|---|
| Flight time | N/A |
| Altitude | 18000 |
| Route | ULGIL T707 TOMTI/N0433F300 DCT ASTEL DCT IPRUX DCT NIRGO T108 LANDU LANDU2A |
| Aircraft | B738/M-SDE2E3FGHIRWXY/LB1 |
Departure
| Time | 2026-04-29 15:31 |
|---|---|
| Airport | Copernicus Wrocław Airport (EPWR) |
Arrival
| Time | N/A |
|---|---|
| Airport | Munich Airport (EDDM) |
| Time | Latitude | Longitude | Altitude | Speed | Heading |
|---|---|---|---|---|---|
| 2026-04-29 15:13 | 51.10835 | 16.88095 | 402 ft | 0 kts | 26° |
| 2026-04-29 15:25 | 51.10822 | 16.88085 | 402 ft | 2 kts | 26° |
| 2026-04-29 15:25 | 51.10807 | 16.88073 | 400 ft | 2 kts | 26° |
| 2026-04-29 15:25 | 51.10793 | 16.88061 | 398 ft | 2 kts | 29° |
| 2026-04-29 15:26 | 51.10779 | 16.88047 | 401 ft | 2 kts | 47° |
| 2026-04-29 15:26 | 51.10776 | 16.88029 | 397 ft | 1 kts | 113° |
| 2026-04-29 15:27 | 51.10776 | 16.88032 | 396 ft | 3 kts | 113° |
| 2026-04-29 15:27 | 51.10748 | 16.88125 | 400 ft | 16 kts | 116° |
| 2026-04-29 15:28 | 51.10683 | 16.88341 | 402 ft | 27 kts | 115° |
| 2026-04-29 15:28 | 51.10620 | 16.88547 | 400 ft | 34 kts | 116° |
| 2026-04-29 15:28 | 51.10463 | 16.89061 | 402 ft | 41 kts | 116° |
| 2026-04-29 15:28 | 51.10340 | 16.89459 | 402 ft | 39 kts | 116° |
| 2026-04-29 15:29 | 51.10228 | 16.89829 | 402 ft | 36 kts | 115° |
| 2026-04-29 15:29 | 51.10010 | 16.89868 | 402 ft | 0 kts | 206° |
| 2026-04-29 15:30 | 51.10000 | 16.89860 | 402 ft | 6 kts | 206° |
| 2026-04-29 15:30 | 51.09931 | 16.89806 | 402 ft | 16 kts | 211° |
| 2026-04-29 15:30 | 51.09911 | 16.89745 | 402 ft | 1 kts | 290° |
| 2026-04-29 15:31 | 51.09928 | 16.89686 | 403 ft | 32 kts | 294° |
| 2026-04-29 15:31 | 51.10161 | 16.88929 | 402 ft | 118 kts | 296° |
| 2026-04-29 15:31 | 51.10617 | 16.87400 | 502 ft | 180 kts | 297° |
| 2026-04-29 15:31 | 51.11184 | 16.85539 | 1268 ft | 195 kts | 300° |
| 2026-04-29 15:32 | 51.11750 | 16.83696 | 2661 ft | 185 kts | 301° |
| 2026-04-29 15:32 | 51.12354 | 16.81731 | 3354 ft | 208 kts | 299° |
| 2026-04-29 15:32 | 51.12644 | 16.79306 | 3634 ft | 246 kts | 263° |
| 2026-04-29 15:32 | 51.11830 | 16.76787 | 4103 ft | 271 kts | 223° |
| 2026-04-29 15:33 | 51.10158 | 16.75419 | 4991 ft | 274 kts | 193° |
| 2026-04-29 15:33 | 51.08439 | 16.74104 | 5862 ft | 281 kts | 223° |
| 2026-04-29 15:33 | 51.07407 | 16.71506 | 6814 ft | 279 kts | 252° |
| 2026-04-29 15:33 | 51.06755 | 16.68624 | 7620 ft | 286 kts | 250° |
| 2026-04-29 15:34 | 51.05963 | 16.65665 | 8481 ft | 290 kts | 246° |
| 2026-04-29 15:34 | 51.05045 | 16.62772 | 9139 ft | 294 kts | 242° |
| 2026-04-29 15:34 | 51.04040 | 16.59959 | 9437 ft | 297 kts | 240° |
| 2026-04-29 15:34 | 51.02956 | 16.57085 | 9419 ft | 304 kts | 239° |
| 2026-04-29 15:35 | 51.01864 | 16.54241 | 9415 ft | 301 kts | 239° |
| 2026-04-29 15:35 | 51.00909 | 16.51309 | 9389 ft | 295 kts | 258° |
| 2026-04-29 15:35 | 51.00836 | 16.48145 | 9424 ft | 286 kts | 284° |
| 2026-04-29 15:35 | 51.01367 | 16.45099 | 9438 ft | 287 kts | 291° |
| 2026-04-29 15:36 | 51.01984 | 16.42045 | 9834 ft | 292 kts | 291° |
| 2026-04-29 15:36 | 51.02604 | 16.38998 | 10715 ft | 294 kts | 291° |
| 2026-04-29 15:36 | 51.03251 | 16.35814 | 11094 ft | 315 kts | 291° |
| 2026-04-29 15:36 | 51.03945 | 16.32365 | 11338 ft | 338 kts | 291° |
| 2026-04-29 15:37 | 51.04674 | 16.28687 | 11995 ft | 346 kts | 291° |
| 2026-04-29 15:37 | 51.05384 | 16.25061 | 12860 ft | 347 kts | 291° |
| 2026-04-29 15:37 | 51.06100 | 16.21384 | 13746 ft | 348 kts | 292° |
| 2026-04-29 15:37 | 51.06819 | 16.17692 | 14557 ft | 350 kts | 292° |
| 2026-04-29 15:38 | 51.07543 | 16.13975 | 15277 ft | 354 kts | 292° |
| 2026-04-29 15:38 | 51.08272 | 16.10221 | 15983 ft | 357 kts | 293° |
| 2026-04-29 15:38 | 51.09005 | 16.06446 | 16699 ft | 360 kts | 293° |
| 2026-04-29 15:38 | 51.09540 | 16.02522 | 17582 ft | 367 kts | 279° |
| 2026-04-29 15:39 | 51.09273 | 15.98428 | 18191 ft | 380 kts | 261° |
| 2026-04-29 15:39 | 51.08512 | 15.94394 | 18419 ft | 382 kts | 259° |
| 2026-04-29 15:39 | 51.07683 | 15.90361 | 18395 ft | 382 kts | 258° |
| 2026-04-29 15:39 | 51.06845 | 15.86358 | 18409 ft | 380 kts | 258° |
| 2026-04-29 15:40 | 51.06016 | 15.82366 | 18409 ft | 379 kts | 258° |
| 2026-04-29 15:40 | 51.05211 | 15.78429 | 18414 ft | 378 kts | 259° |
| 2026-04-29 15:40 | 51.04406 | 15.74445 | 18405 ft | 378 kts | 259° |
| 2026-04-29 15:40 | 51.03606 | 15.70465 | 18404 ft | 378 kts | 259° |
| 2026-04-29 15:41 | 51.02807 | 15.66473 | 18406 ft | 378 kts | 259° |
| 2026-04-29 15:41 | 51.02008 | 15.62492 | 18397 ft | 378 kts | 259° |
| 2026-04-29 15:41 | 51.01211 | 15.58521 | 18402 ft | 377 kts | 259° |
| 2026-04-29 15:41 | 51.00410 | 15.54539 | 18403 ft | 377 kts | 259° |
| 2026-04-29 15:42 | 50.99611 | 15.50571 | 18403 ft | 377 kts | 259° |
| 2026-04-29 15:42 | 50.98809 | 15.46598 | 18399 ft | 377 kts | 259° |
| 2026-04-29 15:42 | 50.98008 | 15.42638 | 18400 ft | 377 kts | 259° |
| 2026-04-29 15:42 | 50.97206 | 15.38678 | 18399 ft | 377 kts | 259° |
| 2026-04-29 15:43 | 50.96401 | 15.34711 | 18404 ft | 377 kts | 259° |
| 2026-04-29 15:43 | 50.95606 | 15.30810 | 18401 ft | 377 kts | 259° |
| 2026-04-29 15:43 | 50.94799 | 15.26849 | 18398 ft | 377 kts | 259° |
| 2026-04-29 15:43 | 50.93994 | 15.22888 | 18396 ft | 377 kts | 259° |
| 2026-04-29 15:44 | 50.93192 | 15.18944 | 18395 ft | 376 kts | 259° |
| 2026-04-29 15:44 | 50.92659 | 15.16329 | 18396 ft | 376 kts | 259° |
| 2026-04-29 15:44 | 50.91857 | 15.12392 | 18384 ft | 375 kts | 259° |
| 2026-04-29 15:44 | 50.91053 | 15.08458 | 18386 ft | 375 kts | 258° |
| 2026-04-29 15:45 | 50.90248 | 15.04527 | 18380 ft | 375 kts | 258° |
| 2026-04-29 15:45 | 50.89445 | 15.00601 | 18388 ft | 375 kts | 258° |
| 2026-04-29 15:45 | 50.88638 | 14.96671 | 18385 ft | 375 kts | 258° |
| 2026-04-29 15:45 | 50.87827 | 14.92736 | 18388 ft | 376 kts | 258° |
| 2026-04-29 15:46 | 50.86899 | 14.88840 | 18381 ft | 382 kts | 249° |
| 2026-04-29 15:46 | 50.85452 | 14.85265 | 18399 ft | 390 kts | 236° |
| 2026-04-29 15:46 | 50.83535 | 14.82219 | 18399 ft | 397 kts | 223° |
| 2026-04-29 15:46 | 50.81353 | 14.79471 | 18393 ft | 398 kts | 221° |
| 2026-04-29 15:47 | 50.79177 | 14.76833 | 18375 ft | 398 kts | 221° |
| 2026-04-29 15:47 | 50.76969 | 14.74180 | 18381 ft | 398 kts | 221° |
| 2026-04-29 15:47 | 50.74767 | 14.71527 | 18378 ft | 397 kts | 221° |
| 2026-04-29 15:47 | 50.72579 | 14.68874 | 18386 ft | 396 kts | 221° |
| 2026-04-29 15:48 | 50.70393 | 14.66211 | 18380 ft | 396 kts | 221° |
| 2026-04-29 15:48 | 50.68216 | 14.63549 | 18374 ft | 395 kts | 221° |
| 2026-04-29 15:48 | 50.66045 | 14.60891 | 18377 ft | 395 kts | 222° |
| 2026-04-29 15:48 | 50.63881 | 14.58239 | 18370 ft | 394 kts | 221° |
| 2026-04-29 15:49 | 50.61715 | 14.55586 | 18371 ft | 394 kts | 221° |
| 2026-04-29 15:49 | 50.59552 | 14.52939 | 18373 ft | 394 kts | 221° |
| 2026-04-29 15:49 | 50.57386 | 14.50291 | 18364 ft | 394 kts | 221° |
| 2026-04-29 15:49 | 50.55217 | 14.47643 | 18357 ft | 394 kts | 221° |
| 2026-04-29 15:50 | 50.53082 | 14.45039 | 18361 ft | 394 kts | 221° |
| 2026-04-29 15:50 | 50.50916 | 14.42402 | 18365 ft | 394 kts | 221° |
| 2026-04-29 15:50 | 50.48741 | 14.39756 | 18354 ft | 394 kts | 221° |
| 2026-04-29 15:50 | 50.46573 | 14.37122 | 18363 ft | 394 kts | 221° |
| 2026-04-29 15:51 | 50.44399 | 14.34483 | 18361 ft | 395 kts | 221° |
| 2026-04-29 15:51 | 50.42225 | 14.31848 | 18355 ft | 395 kts | 221° |
| 2026-04-29 15:51 | 50.40047 | 14.29211 | 18356 ft | 396 kts | 221° |
| 2026-04-29 15:51 | 50.37867 | 14.26576 | 18355 ft | 396 kts | 221° |
| 2026-04-29 15:52 | 50.35682 | 14.23937 | 18352 ft | 396 kts | 221° |
| 2026-04-29 15:52 | 50.33504 | 14.21310 | 18346 ft | 396 kts | 221° |
| 2026-04-29 15:52 | 50.31321 | 14.18680 | 18348 ft | 395 kts | 221° |
| 2026-04-29 15:52 | 50.29142 | 14.16058 | 18350 ft | 395 kts | 221° |
| 2026-04-29 15:53 | 50.26994 | 14.13477 | 18348 ft | 394 kts | 221° |
| 2026-04-29 15:53 | 50.24820 | 14.10868 | 18353 ft | 394 kts | 221° |
| 2026-04-29 15:53 | 50.22647 | 14.08262 | 18343 ft | 394 kts | 221° |
| 2026-04-29 15:53 | 50.20467 | 14.05651 | 18350 ft | 393 kts | 221° |
| 2026-04-29 15:54 | 50.18294 | 14.03051 | 18349 ft | 393 kts | 221° |
| 2026-04-29 15:54 | 50.16120 | 14.00453 | 18345 ft | 393 kts | 221° |
| 2026-04-29 15:54 | 50.13953 | 13.97868 | 18344 ft | 392 kts | 221° |
| 2026-04-29 15:54 | 50.11782 | 13.95279 | 18349 ft | 392 kts | 221° |
| 2026-04-29 15:55 | 50.09617 | 13.92702 | 18338 ft | 391 kts | 221° |
| 2026-04-29 15:55 | 50.07477 | 13.90157 | 18343 ft | 390 kts | 221° |
| 2026-04-29 15:55 | 50.05321 | 13.87596 | 18334 ft | 390 kts | 220° |
| 2026-04-29 15:55 | 50.03161 | 13.85033 | 18342 ft | 389 kts | 220° |
| 2026-04-29 15:56 | 50.01007 | 13.82480 | 18339 ft | 388 kts | 220° |
| 2026-04-29 15:56 | 49.98853 | 13.79930 | 18339 ft | 388 kts | 220° |
| 2026-04-29 15:56 | 49.96732 | 13.77422 | 18332 ft | 388 kts | 220° |
| 2026-04-29 15:56 | 49.94557 | 13.74852 | 18338 ft | 388 kts | 220° |
| 2026-04-29 15:57 | 49.92411 | 13.72321 | 18327 ft | 388 kts | 220° |
| 2026-04-29 15:57 | 49.90263 | 13.69789 | 18331 ft | 387 kts | 220° |
| 2026-04-29 15:57 | 49.88142 | 13.67293 | 18330 ft | 387 kts | 220° |
| 2026-04-29 15:57 | 49.85995 | 13.64768 | 18324 ft | 388 kts | 220° |
| 2026-04-29 15:58 | 49.83841 | 13.62239 | 18318 ft | 388 kts | 220° |
| 2026-04-29 15:58 | 49.81692 | 13.59719 | 18321 ft | 387 kts | 220° |
| 2026-04-29 15:58 | 49.79541 | 13.57197 | 18319 ft | 388 kts | 220° |
| 2026-04-29 15:58 | 49.77388 | 13.54677 | 18317 ft | 388 kts | 220° |
| 2026-04-29 15:59 | 49.75233 | 13.52159 | 18316 ft | 387 kts | 220° |
| 2026-04-29 15:59 | 49.73106 | 13.49674 | 18320 ft | 387 kts | 220° |
| 2026-04-29 15:59 | 49.70960 | 13.47172 | 18313 ft | 387 kts | 220° |
| 2026-04-29 15:59 | 49.68805 | 13.44661 | 18317 ft | 387 kts | 220° |
| 2026-04-29 16:00 | 49.66652 | 13.42155 | 18321 ft | 387 kts | 220° |
| 2026-04-29 16:00 | 49.64499 | 13.39652 | 18319 ft | 387 kts | 220° |
| 2026-04-29 16:00 | 49.62350 | 13.37156 | 18313 ft | 386 kts | 220° |
| 2026-04-29 16:00 | 49.60198 | 13.34660 | 18314 ft | 385 kts | 220° |
| 2026-04-29 16:01 | 49.58082 | 13.32208 | 18329 ft | 385 kts | 220° |
| 2026-04-29 16:01 | 49.55944 | 13.29732 | 18307 ft | 385 kts | 220° |
| 2026-04-29 16:01 | 49.53802 | 13.27255 | 18320 ft | 385 kts | 220° |
| 2026-04-29 16:01 | 49.51658 | 13.24780 | 18315 ft | 385 kts | 220° |
| 2026-04-29 16:02 | 49.49433 | 13.22464 | 18294 ft | 387 kts | 212° |
| 2026-04-29 16:02 | 49.46971 | 13.20752 | 18313 ft | 389 kts | 202° |
| 2026-04-29 16:02 | 49.44415 | 13.19362 | 18301 ft | 389 kts | 201° |
| 2026-04-29 16:02 | 49.41855 | 13.18013 | 18303 ft | 389 kts | 201° |
| 2026-04-29 16:03 | 49.39303 | 13.16646 | 18288 ft | 388 kts | 201° |
| 2026-04-29 16:03 | 49.36757 | 13.15253 | 18276 ft | 388 kts | 202° |
| 2026-04-29 16:03 | 49.34255 | 13.13872 | 18282 ft | 387 kts | 202° |
| 2026-04-29 16:03 | 49.31756 | 13.12361 | 18271 ft | 384 kts | 206° |
| 2026-04-29 16:04 | 49.29360 | 13.10591 | 18279 ft | 383 kts | 209° |
| 2026-04-29 16:04 | 49.26975 | 13.08732 | 18271 ft | 382 kts | 209° |
| 2026-04-29 16:04 | 49.24588 | 13.06902 | 18267 ft | 382 kts | 208° |
| 2026-04-29 16:04 | 49.22197 | 13.05108 | 18256 ft | 382 kts | 208° |
| 2026-04-29 16:05 | 49.19802 | 13.03339 | 18254 ft | 382 kts | 208° |
| 2026-04-29 16:05 | 49.17396 | 13.01593 | 18266 ft | 382 kts | 207° |
| 2026-04-29 16:05 | 49.14991 | 12.99854 | 18253 ft | 382 kts | 207° |
| 2026-04-29 16:05 | 49.12620 | 12.98138 | 18255 ft | 381 kts | 207° |
| 2026-04-29 16:06 | 49.10225 | 12.96403 | 18259 ft | 381 kts | 207° |
| 2026-04-29 16:06 | 49.07825 | 12.94658 | 18244 ft | 381 kts | 208° |
| 2026-04-29 16:06 | 49.05438 | 12.92921 | 18250 ft | 381 kts | 207° |
| 2026-04-29 16:06 | 49.03058 | 12.91189 | 18251 ft | 381 kts | 207° |
| 2026-04-29 16:07 | 49.00653 | 12.89441 | 18248 ft | 381 kts | 207° |
| 2026-04-29 16:07 | 48.98254 | 12.87702 | 18243 ft | 381 kts | 207° |
| 2026-04-29 16:07 | 48.95862 | 12.85970 | 18241 ft | 381 kts | 207° |
| 2026-04-29 16:07 | 48.93466 | 12.84245 | 18243 ft | 381 kts | 207° |
| 2026-04-29 16:08 | 48.91074 | 12.82526 | 18243 ft | 380 kts | 207° |
| 2026-04-29 16:08 | 48.88678 | 12.80808 | 18244 ft | 380 kts | 207° |
| 2026-04-29 16:08 | 48.86285 | 12.79093 | 18241 ft | 380 kts | 207° |
| 2026-04-29 16:08 | 48.83894 | 12.77380 | 18244 ft | 379 kts | 207° |
| 2026-04-29 16:09 | 48.81507 | 12.75671 | 18242 ft | 379 kts | 207° |
| 2026-04-29 16:09 | 48.79141 | 12.73979 | 18223 ft | 371 kts | 207° |
| 2026-04-29 16:09 | 48.76848 | 12.72342 | 18104 ft | 358 kts | 207° |
| 2026-04-29 16:09 | 48.74649 | 12.70773 | 17806 ft | 348 kts | 207° |
| 2026-04-29 16:10 | 48.72491 | 12.69234 | 17532 ft | 340 kts | 207° |
| 2026-04-29 16:10 | 48.70350 | 12.67708 | 17269 ft | 341 kts | 207° |
| 2026-04-29 16:10 | 48.68361 | 12.66283 | 17040 ft | 344 kts | 207° |
| 2026-04-29 16:10 | 48.66186 | 12.64725 | 16780 ft | 344 kts | 207° |
| 2026-04-29 16:11 | 48.64098 | 12.63030 | 16485 ft | 338 kts | 220° |
| 2026-04-29 16:11 | 48.62556 | 12.60437 | 16233 ft | 329 kts | 243° |
| 2026-04-29 16:11 | 48.61710 | 12.57287 | 15984 ft | 321 kts | 262° |
| 2026-04-29 16:11 | 48.61432 | 12.53962 | 15752 ft | 317 kts | 267° |
| 2026-04-29 16:12 | 48.61237 | 12.50639 | 15501 ft | 317 kts | 268° |
| 2026-04-29 16:12 | 48.61104 | 12.48439 | 15332 ft | 317 kts | 267° |
| 2026-04-29 16:12 | 48.60823 | 12.44114 | 14966 ft | 304 kts | 267° |
| 2026-04-29 16:12 | 48.60606 | 12.40974 | 14639 ft | 296 kts | 266° |
| 2026-04-29 16:13 | 48.60388 | 12.37892 | 14335 ft | 292 kts | 266° |
| 2026-04-29 16:13 | 48.60171 | 12.34849 | 14067 ft | 289 kts | 267° |
| 2026-04-29 16:13 | 48.59897 | 12.31877 | 13797 ft | 294 kts | 256° |
| 2026-04-29 16:13 | 48.58963 | 12.29028 | 13866 ft | 315 kts | 234° |
| 2026-04-29 16:14 | 48.57318 | 12.26754 | 13848 ft | 327 kts | 212° |
| 2026-04-29 16:14 | 48.55185 | 12.25510 | 13862 ft | 331 kts | 197° |
| 2026-04-29 16:14 | 48.52957 | 12.24650 | 13845 ft | 330 kts | 195° |
| 2026-04-29 16:14 | 48.50799 | 12.23634 | 13803 ft | 327 kts | 210° |
| 2026-04-29 16:15 | 48.49067 | 12.21515 | 13800 ft | 320 kts | 235° |
| 2026-04-29 16:15 | 48.48027 | 12.18601 | 13812 ft | 314 kts | 256° |
| 2026-04-29 16:15 | 48.47626 | 12.15390 | 13822 ft | 311 kts | 265° |
| 2026-04-29 16:15 | 48.47379 | 12.12144 | 13815 ft | 312 kts | 266° |
| 2026-04-29 16:16 | 48.47159 | 12.08882 | 13816 ft | 313 kts | 267° |
| 2026-04-29 16:16 | 48.46938 | 12.05600 | 13813 ft | 314 kts | 266° |
| 2026-04-29 16:16 | 48.46712 | 12.02319 | 13812 ft | 315 kts | 266° |
| 2026-04-29 16:16 | 48.46478 | 11.99036 | 13809 ft | 316 kts | 266° |
| 2026-04-29 16:17 | 48.46238 | 11.95734 | 13808 ft | 316 kts | 266° |
| 2026-04-29 16:17 | 48.45996 | 11.92448 | 13805 ft | 316 kts | 266° |
| 2026-04-29 16:17 | 48.45753 | 11.89206 | 13789 ft | 315 kts | 266° |
| 2026-04-29 16:17 | 48.45505 | 11.85916 | 13478 ft | 318 kts | 266° |
| 2026-04-29 16:18 | 48.45255 | 11.82642 | 13349 ft | 310 kts | 265° |
| 2026-04-29 16:18 | 48.45009 | 11.79428 | 13354 ft | 309 kts | 266° |
| 2026-04-29 16:18 | 48.44760 | 11.76178 | 13195 ft | 315 kts | 265° |
| 2026-04-29 16:18 | 48.44508 | 11.72910 | 12972 ft | 312 kts | 266° |
| 2026-04-29 16:19 | 48.44257 | 11.69676 | 12679 ft | 311 kts | 265° |
| 2026-04-29 16:19 | 48.44005 | 11.66426 | 12165 ft | 313 kts | 265° |
| 2026-04-29 16:19 | 48.43750 | 11.63150 | 11503 ft | 317 kts | 265° |
| 2026-04-29 16:19 | 48.43495 | 11.59881 | 10821 ft | 318 kts | 265° |
| 2026-04-29 16:20 | 48.43233 | 11.56545 | 10133 ft | 318 kts | 265° |
| 2026-04-29 16:20 | 48.42972 | 11.53238 | 9386 ft | 318 kts | 265° |
| 2026-04-29 16:20 | 48.42713 | 11.49969 | 8664 ft | 318 kts | 264° |
| 2026-04-29 16:20 | 48.42450 | 11.46660 | 7953 ft | 319 kts | 264° |
| 2026-04-29 16:21 | 48.42053 | 11.43383 | 7228 ft | 320 kts | 249° |
| 2026-04-29 16:21 | 48.40778 | 11.40674 | 6544 ft | 319 kts | 218° |
| 2026-04-29 16:21 | 48.38845 | 11.39125 | 5865 ft | 314 kts | 194° |
| 2026-04-29 16:21 | 48.36710 | 11.38831 | 5535 ft | 299 kts | 175° |
| 2026-04-29 16:22 | 48.34708 | 11.38982 | 5505 ft | 279 kts | 174° |
| 2026-04-29 16:22 | 48.32830 | 11.39128 | 5487 ft | 264 kts | 174° |
| 2026-04-29 16:22 | 48.31017 | 11.39271 | 5303 ft | 259 kts | 174° |
| 2026-04-29 16:22 | 48.29255 | 11.39406 | 5205 ft | 246 kts | 174° |
| 2026-04-29 16:23 | 48.27565 | 11.39528 | 5112 ft | 245 kts | 174° |
| 2026-04-29 16:23 | 48.25804 | 11.39665 | 4947 ft | 260 kts | 174° |
| 2026-04-29 16:23 | 48.23963 | 11.39805 | 4635 ft | 267 kts | 175° |
| 2026-04-29 16:23 | 48.22127 | 11.39279 | 4295 ft | 272 kts | 204° |
| 2026-04-29 16:24 | 48.20680 | 11.37526 | 4071 ft | 270 kts | 233° |
| 2026-04-29 16:24 | 48.19970 | 11.35048 | 4014 ft | 262 kts | 259° |
| 2026-04-29 16:24 | 48.19692 | 11.32357 | 3964 ft | 261 kts | 263° |
| 2026-04-29 16:24 | 48.19467 | 11.29695 | 3962 ft | 252 kts | 264° |
| 2026-04-29 16:25 | 48.19272 | 11.27173 | 3950 ft | 243 kts | 271° |
| 2026-04-29 16:25 | 48.19634 | 11.24811 | 3968 ft | 227 kts | 305° |
| 2026-04-29 16:25 | 48.20755 | 11.23196 | 3991 ft | 227 kts | 338° |
| 2026-04-29 16:25 | 48.22278 | 11.22532 | 3992 ft | 231 kts | 352° |
| 2026-04-29 16:26 | 48.23871 | 11.22130 | 3971 ft | 231 kts | 357° |
| 2026-04-29 16:26 | 48.25400 | 11.22462 | 3966 ft | 223 kts | 29° |
| 2026-04-29 16:26 | 48.26559 | 11.23912 | 3971 ft | 215 kts | 51° |
| 2026-04-29 16:26 | 48.27504 | 11.25691 | 3972 ft | 221 kts | 52° |
| 2026-04-29 16:27 | 48.28454 | 11.27510 | 4001 ft | 223 kts | 51° |
| 2026-04-29 16:27 | 48.29407 | 11.29352 | 3968 ft | 221 kts | 53° |
| 2026-04-29 16:27 | 48.30314 | 11.31201 | 3971 ft | 218 kts | 66° |
| 2026-04-29 16:27 | 48.30737 | 11.33385 | 4001 ft | 220 kts | 77° |
| 2026-04-29 16:28 | 48.31053 | 11.35662 | 3988 ft | 224 kts | 79° |
| 2026-04-29 16:28 | 48.31283 | 11.37969 | 3972 ft | 224 kts | 82° |
| 2026-04-29 16:28 | 48.31467 | 11.40299 | 3954 ft | 226 kts | 83° |
| 2026-04-29 16:28 | 48.31642 | 11.42634 | 3971 ft | 224 kts | 83° |
| 2026-04-29 16:29 | 48.31755 | 11.44180 | 3994 ft | 226 kts | 82° |
| 2026-04-29 16:29 | 48.31926 | 11.46516 | 4009 ft | 222 kts | 83° |
| 2026-04-29 16:29 | 48.32094 | 11.48808 | 4006 ft | 219 kts | 82° |
| 2026-04-29 16:29 | 48.32317 | 11.51822 | 3978 ft | 219 kts | 84° |
| 2026-04-29 16:30 | 48.32430 | 11.53355 | 4004 ft | 219 kts | 81° |
| 2026-04-29 16:30 | 48.32600 | 11.55654 | 3988 ft | 223 kts | 83° |
| 2026-04-29 16:30 | 48.32773 | 11.58005 | 3800 ft | 231 kts | 83° |
| 2026-04-29 16:30 | 48.32960 | 11.60447 | 3497 ft | 235 kts | 82° |
| 2026-04-29 16:31 | 48.33144 | 11.62869 | 3191 ft | 231 kts | 82° |
| 2026-04-29 16:31 | 48.33319 | 11.65232 | 2866 ft | 224 kts | 82° |
| 2026-04-29 16:31 | 48.33487 | 11.67471 | 2597 ft | 214 kts | 83° |
| 2026-04-29 16:31 | 48.33647 | 11.69620 | 2280 ft | 198 kts | 81° |
| 2026-04-29 16:32 | 48.33514 | 11.71578 | 1953 ft | 186 kts | 118° |
| 2026-04-29 16:32 | 48.32635 | 11.72888 | 1807 ft | 175 kts | 140° |
| 2026-04-29 16:32 | 48.31697 | 11.73960 | 1844 ft | 173 kts | 141° |
| 2026-04-29 16:32 | 48.30744 | 11.74964 | 2539 ft | 166 kts | 142° |
| 2026-04-29 16:33 | 48.28488 | 11.76520 | 3989 ft | 187 kts | 160° |
| 2026-04-29 16:33 | 48.27219 | 11.76911 | 4827 ft | 196 kts | 168° |
| 2026-04-29 16:33 | 48.25762 | 11.77198 | 5090 ft | 222 kts | 168° |
| 2026-04-29 16:34 | 48.24173 | 11.77918 | 5048 ft | 255 kts | 156° |
| 2026-04-29 16:34 | 48.22467 | 11.78959 | 4997 ft | 268 kts | 155° |
| 2026-04-29 16:34 | 48.20740 | 11.80011 | 4999 ft | 267 kts | 155° |
| 2026-04-29 16:34 | 48.19021 | 11.81049 | 4991 ft | 266 kts | 156° |
| 2026-04-29 16:35 | 48.17289 | 11.82084 | 4936 ft | 270 kts | 156° |
| 2026-04-29 16:35 | 48.15559 | 11.83127 | 4972 ft | 268 kts | 156° |
| 2026-04-29 16:35 | 48.13835 | 11.84159 | 4983 ft | 269 kts | 156° |
| 2026-04-29 16:35 | 48.12101 | 11.85207 | 4970 ft | 268 kts | 156° |
| 2026-04-29 16:36 | 48.10378 | 11.86242 | 4992 ft | 267 kts | 156° |
| 2026-04-29 16:36 | 48.08634 | 11.87183 | 4974 ft | 269 kts | 168° |
| 2026-04-29 16:36 | 48.06781 | 11.86876 | 5001 ft | 275 kts | 203° |
| 2026-04-29 16:36 | 48.05327 | 11.85038 | 4993 ft | 278 kts | 238° |
| 2026-04-29 16:37 | 48.04735 | 11.82330 | 4997 ft | 275 kts | 265° |
| 2026-04-29 16:37 | 48.04893 | 11.79485 | 4971 ft | 276 kts | 288° |
| 2026-04-29 16:37 | 48.05773 | 11.76985 | 5006 ft | 274 kts | 313° |
| 2026-04-29 16:37 | 48.06694 | 11.75691 | 4990 ft | 275 kts | 324° |
| 2026-04-29 16:38 | 48.08747 | 11.73431 | 4975 ft | 273 kts | 326° |
| 2026-04-29 16:38 | 48.10281 | 11.71799 | 4985 ft | 269 kts | 327° |
| 2026-04-29 16:38 | 48.11802 | 11.70178 | 4991 ft | 266 kts | 326° |
| 2026-04-29 16:38 | 48.13305 | 11.68563 | 4983 ft | 265 kts | 326° |
| 2026-04-29 16:39 | 48.14807 | 11.66946 | 4992 ft | 267 kts | 326° |
| 2026-04-29 16:39 | 48.16327 | 11.65296 | 5004 ft | 272 kts | 326° |
| 2026-04-29 16:39 | 48.17837 | 11.63649 | 4991 ft | 271 kts | 326° |
| 2026-04-29 16:39 | 48.19355 | 11.61993 | 4986 ft | 270 kts | 326° |
| 2026-04-29 16:40 | 48.20863 | 11.60341 | 4985 ft | 265 kts | 326° |
| 2026-04-29 16:40 | 48.22328 | 11.58733 | 4986 ft | 257 kts | 326° |
| 2026-04-29 16:40 | 48.23747 | 11.57177 | 4993 ft | 248 kts | 326° |
| 2026-04-29 16:40 | 48.25108 | 11.55679 | 4992 ft | 238 kts | 326° |
| 2026-04-29 16:41 | 48.26450 | 11.54206 | 5001 ft | 244 kts | 326° |
| 2026-04-29 16:41 | 48.27867 | 11.52728 | 4996 ft | 249 kts | 330° |
| 2026-04-29 16:41 | 48.29470 | 11.51925 | 4998 ft | 241 kts | 3° |
| 2026-04-29 16:41 | 48.31007 | 11.52706 | 4975 ft | 233 kts | 40° |
| 2026-04-29 16:42 | 48.31877 | 11.54622 | 4995 ft | 216 kts | 66° |
| 2026-04-29 16:42 | 48.32417 | 11.56617 | 4971 ft | 196 kts | 72° |
| 2026-04-29 16:42 | 48.32732 | 11.58504 | 4842 ft | 184 kts | 77° |
| 2026-04-29 16:42 | 48.32943 | 11.60340 | 4655 ft | 174 kts | 81° |
| 2026-04-29 16:43 | 48.33092 | 11.62151 | 4294 ft | 173 kts | 83° |
| 2026-04-29 16:43 | 48.33261 | 11.64008 | 3635 ft | 183 kts | 81° |
| 2026-04-29 16:43 | 48.33399 | 11.65922 | 3069 ft | 186 kts | 84° |
| 2026-04-29 16:43 | 48.33516 | 11.67839 | 2583 ft | 183 kts | 84° |
| 2026-04-29 16:44 | 48.33582 | 11.69718 | 2097 ft | 179 kts | 88° |
| 2026-04-29 16:44 | 48.33694 | 11.71471 | 1902 ft | 159 kts | 76° |
| 2026-04-29 16:44 | 48.33904 | 11.73085 | 1781 ft | 151 kts | 78° |